| Date | Time | Temp. (oF) | Dew Point (oF) | Rel. Hum. (%) | Press. (in.) | Wind Dir. | Wind Speed (mph) | Hourly Rainfall (in.) |
|
|---|---|---|---|---|---|---|---|---|---|
| 1 | 05/10 | 00:00 | 54 | 47 | 78 | 30.03 | ESE | 2 | 0.00 |
| 2 | 05/09 | 23:00 | 57 | 49 | 76 | 30.02 | E | 6 | 0.00 |
| 3 | 05/09 | 22:00 | 63 | 52 | 69 | 29.99 | E | 4 | 0.00 |
| 4 | 05/09 | 21:00 | 68 | 50 | 53 | 29.95 | S | 5 | 0.00 |
| 5 | 05/09 | 20:00 | 75 | 48 | 40 | 29.93 | S | 2 | 0.00 |
| 6 | 05/09 | 19:00 | 77 | 48 | 37 | 29.91 | SSW | 4 | 0.00 |
| 7 | 05/09 | 18:00 | 78 | 49 | 37 | 29.91 | SSW | 7 | 0.00 |
| 8 | 05/09 | 17:00 | 79 | 48 | 35 | 29.91 | NW | 3 | 0.00 |
| 9 | 05/09 | 16:00 | 79 | 48 | 35 | 29.92 | N | 1 | 0.00 |
| 10 | 05/09 | 15:00 | 78 | 50 | 38 | 29.96 | NW | 3 | 0.00 |
| 11 | 05/09 | 14:00 | 76 | 48 | 38 | 29.98 | SSW | 3 | 0.00 |
| 12 | 05/09 | 13:00 | 75 | 51 | 44 | 29.99 | NNW | 8 | 0.00 |
| 13 | 05/09 | 12:00 | 71 | 47 | 43 | 30.02 | NNW | 13 | 0.00 |
| 14 | 05/09 | 11:00 | 68 | 45 | 44 | 30.04 | N | 8 | 0.00 |
| 15 | 05/09 | 10:00 | 66 | 46 | 49 | 30.05 | WNW | 8 | 0.00 |
| 16 | 05/09 | 09:00 | 62 | 44 | 52 | 30.06 | NW | 3 | 0.00 |
| 17 | 05/09 | 08:00 | 58 | 44 | 60 | 30.06 | NW | 3 | 0.00 |
| 18 | 05/09 | 07:00 | 50 | 41 | 72 | 30.06 | WNW | 1 | 0.00 |
| 19 | 05/09 | 06:00 | 46 | 40 | 81 | 30.04 | NW | 2 | 0.00 |
| 20 | 05/09 | 05:00 | 48 | 41 | 78 | 30.02 | WNW | 0 | 0.00 |
| 21 | 05/09 | 04:00 | 51 | 41 | 69 | 30.01 | NW | 2 | 0.00 |
| 22 | 05/09 | 03:00 | 54 | 39 | 58 | 30.01 | NW | 1 | 0.00 |
| 23 | 05/09 | 02:00 | 55 | 39 | 56 | 30.02 | WNW | 3 | 0.00 |
| 24 | 05/09 | 01:00 | 58 | 39 | 51 | 30.02 | NW | 3 | 0.00 |